sensor_id;sensor_type;location;lat;lon;timestamp;P1;durP1;ratioP1;P2;durP2;ratioP2
13343;SDS011;6741;48.964;9.406;2023-03-14T00:00:22;0.50;;;0.50;;
13343;SDS011;6741;48.964;9.406;2023-03-14T00:02:51;2.20;;;0.70;;
13343;SDS011;6741;48.964;9.406;2023-03-14T00:05:20;0.30;;;0.30;;
13343;SDS011;6741;48.964;9.406;2023-03-14T00:07:47;0.40;;;0.40;;
13343;SDS011;6741;48.964;9.406;2023-03-14T00:10:14;2.33;;;0.77;;
13343;SDS011;6741;48.964;9.406;2023-03-14T00:12:44;0.43;;;0.43;;
13343;SDS011;6741;48.964;9.406;2023-03-14T00:15:11;1.20;;;0.60;;
13343;SDS011;6741;48.964;9.406;2023-03-14T00:17:38;0.60;;;0.60;;
13343;SDS011;6741;48.964;9.406;2023-03-14T00:20:09;1.00;;;0.60;;
13343;SDS011;6741;48.964;9.406;2023-03-14T00:22:38;1.17;;;0.50;;
13343;SDS011;6741;48.964;9.406;2023-03-14T00:25:06;0.53;;;0.53;;
13343;SDS011;6741;48.964;9.406;2023-03-14T00:27:35;1.43;;;0.63;;
13343;SDS011;6741;48.964;9.406;2023-03-14T00:30:02;0.50;;;0.50;;
13343;SDS011;6741;48.964;9.406;2023-03-14T00:32:30;0.50;;;0.50;;
13343;SDS011;6741;48.964;9.406;2023-03-14T00:34:57;0.67;;;0.60;;
13343;SDS011;6741;48.964;9.406;2023-03-14T00:37:24;0.40;;;0.40;;
13343;SDS011;6741;48.964;9.406;2023-03-14T00:39:52;1.03;;;1.03;;
13343;SDS011;6741;48.964;9.406;2023-03-14T00:42:19;1.80;;;0.50;;
13343;SDS011;6741;48.964;9.406;2023-03-14T00:44:46;0.93;;;0.50;;
13343;SDS011;6741;48.964;9.406;2023-03-14T00:47:13;0.77;;;0.50;;
13343;SDS011;6741;48.964;9.406;2023-03-14T00:49:40;1.30;;;0.67;;
13343;SDS011;6741;48.964;9.406;2023-03-14T00:52:08;0.47;;;0.47;;
13343;SDS011;6741;48.964;9.406;2023-03-14T00:54:35;0.40;;;0.40;;
13343;SDS011;6741;48.964;9.406;2023-03-14T00:57:03;0.60;;;0.60;;
13343;SDS011;6741;48.964;9.406;2023-03-14T00:59:30;0.83;;;0.70;;
13343;SDS011;6741;48.964;9.406;2023-03-14T01:01:57;0.50;;;0.43;;
13343;SDS011;6741;48.964;9.406;2023-03-14T01:04:24;0.50;;;0.40;;
13343;SDS011;6741;48.964;9.406;2023-03-14T01:06:51;0.80;;;0.40;;
13343;SDS011;6741;48.964;9.406;2023-03-14T01:09:18;0.40;;;0.40;;
13343;SDS011;6741;48.964;9.406;2023-03-14T01:11:45;0.93;;;0.70;;
13343;SDS011;6741;48.964;9.406;2023-03-14T01:14:15;0.93;;;0.60;;
13343;SDS011;6741;48.964;9.406;2023-03-14T01:16:42;1.47;;;0.60;;
13343;SDS011;6741;48.964;9.406;2023-03-14T01:19:09;0.80;;;0.57;;
13343;SDS011;6741;48.964;9.406;2023-03-14T01:21:36;1.30;;;0.60;;
13343;SDS011;6741;48.964;9.406;2023-03-14T01:24:03;0.50;;;0.50;;
13343;SDS011;6741;48.964;9.406;2023-03-14T01:26:32;0.47;;;0.47;;
13343;SDS011;6741;48.964;9.406;2023-03-14T01:29:00;0.47;;;0.47;;
13343;SDS011;6741;48.964;9.406;2023-03-14T01:31:29;1.17;;;0.60;;
13343;SDS011;6741;48.964;9.406;2023-03-14T01:33:56;0.40;;;0.40;;
13343;SDS011;6741;48.964;9.406;2023-03-14T01:36:22;1.53;;;0.60;;
13343;SDS011;6741;48.964;9.406;2023-03-14T01:38:49;0.67;;;0.67;;
13343;SDS011;6741;48.964;9.406;2023-03-14T01:41:17;0.37;;;0.37;;
13343;SDS011;6741;48.964;9.406;2023-03-14T01:43:46;0.30;;;0.30;;
13343;SDS011;6741;48.964;9.406;2023-03-14T01:46:21;0.73;;;0.60;;
13343;SDS011;6741;48.964;9.406;2023-03-14T01:49:00;0.60;;;0.50;;
13343;SDS011;6741;48.964;9.406;2023-03-14T01:51:31;0.63;;;0.40;;
13343;SDS011;6741;48.964;9.406;2023-03-14T01:54:04;0.40;;;0.40;;
13343;SDS011;6741;48.964;9.406;2023-03-14T01:56:36;0.40;;;0.40;;
13343;SDS011;6741;48.964;9.406;2023-03-14T01:59:05;0.67;;;0.60;;
13343;SDS011;6741;48.964;9.406;2023-03-14T02:01:35;1.80;;;0.60;;
13343;SDS011;6741;48.964;9.406;2023-03-14T02:04:03;0.50;;;0.50;;
13343;SDS011;6741;48.964;9.406;2023-03-14T02:06:34;1.87;;;0.50;;
13343;SDS011;6741;48.964;9.406;2023-03-14T02:09:06;0.70;;;0.40;;
13343;SDS011;6741;48.964;9.406;2023-03-14T02:11:33;0.40;;;0.40;;
13343;SDS011;6741;48.964;9.406;2023-03-14T02:14:00;0.40;;;0.40;;
13343;SDS011;6741;48.964;9.406;2023-03-14T02:16:28;1.27;;;0.60;;
13343;SDS011;6741;48.964;9.406;2023-03-14T02:18:58;0.40;;;0.40;;
13343;SDS011;6741;48.964;9.406;2023-03-14T02:21:27;0.60;;;0.47;;
13343;SDS011;6741;48.964;9.406;2023-03-14T02:24:06;0.40;;;0.40;;
13343;SDS011;6741;48.964;9.406;2023-03-14T02:26:42;0.47;;;0.43;;
13343;SDS011;6741;48.964;9.406;2023-03-14T02:29:13;0.60;;;0.23;;
13343;SDS011;6741;48.964;9.406;2023-03-14T02:31:39;0.67;;;0.53;;
13343;SDS011;6741;48.964;9.406;2023-03-14T02:34:06;0.77;;;0.40;;
13343;SDS011;6741;48.964;9.406;2023-03-14T02:36:34;0.40;;;0.40;;
13343;SDS011;6741;48.964;9.406;2023-03-14T02:39:03;1.67;;;0.60;;
13343;SDS011;6741;48.964;9.406;2023-03-14T02:41:34;1.00;;;0.60;;
13343;SDS011;6741;48.964;9.406;2023-03-14T02:44:01;0.30;;;0.30;;
13343;SDS011;6741;48.964;9.406;2023-03-14T02:46:29;0.80;;;0.57;;
13343;SDS011;6741;48.964;9.406;2023-03-14T02:48:57;0.60;;;0.37;;
13343;SDS011;6741;48.964;9.406;2023-03-14T02:51:27;0.47;;;0.23;;
13343;SDS011;6741;48.964;9.406;2023-03-14T02:53:55;0.53;;;0.53;;
13343;SDS011;6741;48.964;9.406;2023-03-14T02:56:22;0.20;;;0.20;;
13343;SDS011;6741;48.964;9.406;2023-03-14T02:58:49;0.30;;;0.30;;
13343;SDS011;6741;48.964;9.406;2023-03-14T03:01:16;1.40;;;0.30;;
13343;SDS011;6741;48.964;9.406;2023-03-14T03:03:45;1.33;;;0.53;;
13343;SDS011;6741;48.964;9.406;2023-03-14T03:06:12;0.53;;;0.50;;
13343;SDS011;6741;48.964;9.406;2023-03-14T03:08:38;0.50;;;0.40;;
13343;SDS011;6741;48.964;9.406;2023-03-14T03:11:05;1.83;;;0.43;;
13343;SDS011;6741;48.964;9.406;2023-03-14T03:13:33;0.40;;;0.40;;
13343;SDS011;6741;48.964;9.406;2023-03-14T03:16:00;0.50;;;0.50;;
13343;SDS011;6741;48.964;9.406;2023-03-14T03:18:27;0.67;;;0.50;;
13343;SDS011;6741;48.964;9.406;2023-03-14T03:20:56;0.60;;;0.57;;
13343;SDS011;6741;48.964;9.406;2023-03-14T03:23:26;0.60;;;0.57;;
13343;SDS011;6741;48.964;9.406;2023-03-14T03:25:53;0.63;;;0.53;;
13343;SDS011;6741;48.964;9.406;2023-03-14T03:28:20;1.80;;;0.60;;
13343;SDS011;6741;48.964;9.406;2023-03-14T03:30:47;0.33;;;0.33;;
13343;SDS011;6741;48.964;9.406;2023-03-14T03:33:14;0.87;;;0.80;;
13343;SDS011;6741;48.964;9.406;2023-03-14T03:35:41;0.60;;;0.43;;
13343;SDS011;6741;48.964;9.406;2023-03-14T03:38:11;0.70;;;0.40;;
13343;SDS011;6741;48.964;9.406;2023-03-14T03:40:38;0.80;;;0.40;;
13343;SDS011;6741;48.964;9.406;2023-03-14T03:43:05;1.87;;;0.50;;
13343;SDS011;6741;48.964;9.406;2023-03-14T03:45:32;0.60;;;0.40;;
13343;SDS011;6741;48.964;9.406;2023-03-14T03:47:59;0.63;;;0.43;;
13343;SDS011;6741;48.964;9.406;2023-03-14T03:50:26;0.60;;;0.43;;
13343;SDS011;6741;48.964;9.406;2023-03-14T03:52:53;1.50;;;0.83;;
13343;SDS011;6741;48.964;9.406;2023-03-14T03:55:21;1.47;;;0.70;;
13343;SDS011;6741;48.964;9.406;2023-03-14T03:57:48;2.20;;;0.70;;
13343;SDS011;6741;48.964;9.406;2023-03-14T04:00:15;0.87;;;0.50;;
13343;SDS011;6741;48.964;9.406;2023-03-14T04:02:42;1.43;;;0.90;;
13343;SDS011;6741;48.964;9.406;2023-03-14T04:05:09;0.83;;;0.77;;
13343;SDS011;6741;48.964;9.406;2023-03-14T04:07:36;1.47;;;0.90;;
13343;SDS011;6741;48.964;9.406;2023-03-14T04:10:04;0.63;;;0.63;;
13343;SDS011;6741;48.964;9.406;2023-03-14T04:12:32;0.93;;;0.73;;
13343;SDS011;6741;48.964;9.406;2023-03-14T04:14:59;2.20;;;0.90;;
13343;SDS011;6741;48.964;9.406;2023-03-14T04:17:26;0.60;;;0.60;;
13343;SDS011;6741;48.964;9.406;2023-03-14T04:19:53;1.97;;;0.77;;
13343;SDS011;6741;48.964;9.406;2023-03-14T04:22:20;0.60;;;0.40;;
13343;SDS011;6741;48.964;9.406;2023-03-14T04:24:47;3.50;;;0.70;;
13343;SDS011;6741;48.964;9.406;2023-03-14T04:27:14;2.40;;;0.60;;
13343;SDS011;6741;48.964;9.406;2023-03-14T04:29:42;1.97;;;0.53;;
13343;SDS011;6741;48.964;9.406;2023-03-14T04:32:09;1.40;;;0.70;;
13343;SDS011;6741;48.964;9.406;2023-03-14T04:34:36;0.83;;;0.73;;
13343;SDS011;6741;48.964;9.406;2023-03-14T04:37:03;1.23;;;0.80;;
13343;SDS011;6741;48.964;9.406;2023-03-14T04:39:30;1.33;;;0.50;;
13343;SDS011;6741;48.964;9.406;2023-03-14T04:41:57;8.27;;;1.00;;
13343;SDS011;6741;48.964;9.406;2023-03-14T04:44:24;1.57;;;0.63;;
13343;SDS011;6741;48.964;9.406;2023-03-14T04:46:52;0.77;;;0.63;;
13343;SDS011;6741;48.964;9.406;2023-03-14T04:49:19;1.50;;;0.67;;
13343;SDS011;6741;48.964;9.406;2023-03-14T04:51:46;1.60;;;1.20;;
13343;SDS011;6741;48.964;9.406;2023-03-14T04:54:15;1.03;;;0.57;;
13343;SDS011;6741;48.964;9.406;2023-03-14T04:56:42;0.70;;;0.70;;
13343;SDS011;6741;48.964;9.406;2023-03-14T04:59:09;0.87;;;0.73;;
13343;SDS011;6741;48.964;9.406;2023-03-14T05:01:36;2.23;;;1.07;;
13343;SDS011;6741;48.964;9.406;2023-03-14T05:04:04;1.70;;;0.90;;
13343;SDS011;6741;48.964;9.406;2023-03-14T05:06:31;2.63;;;0.90;;
13343;SDS011;6741;48.964;9.406;2023-03-14T05:08:58;2.73;;;0.80;;
13343;SDS011;6741;48.964;9.406;2023-03-14T05:11:25;3.10;;;0.83;;
13343;SDS011;6741;48.964;9.406;2023-03-14T05:13:52;3.10;;;0.87;;
13343;SDS011;6741;48.964;9.406;2023-03-14T05:16:19;1.80;;;0.80;;
13343;SDS011;6741;48.964;9.406;2023-03-14T05:18:46;1.90;;;0.77;;
13343;SDS011;6741;48.964;9.406;2023-03-14T05:21:14;1.73;;;0.77;;
13343;SDS011;6741;48.964;9.406;2023-03-14T05:23:41;1.90;;;0.53;;
13343;SDS011;6741;48.964;9.406;2023-03-14T05:26:08;3.70;;;1.00;;
13343;SDS011;6741;48.964;9.406;2023-03-14T05:28:35;1.57;;;0.97;;
13343;SDS011;6741;48.964;9.406;2023-03-14T05:31:05;2.97;;;1.13;;
13343;SDS011;6741;48.964;9.406;2023-03-14T05:33:33;1.93;;;0.97;;
13343;SDS011;6741;48.964;9.406;2023-03-14T05:36:00;1.40;;;0.67;;
13343;SDS011;6741;48.964;9.406;2023-03-14T05:38:29;2.67;;;1.10;;
13343;SDS011;6741;48.964;9.406;2023-03-14T05:40:56;2.47;;;1.27;;
13343;SDS011;6741;48.964;9.406;2023-03-14T05:43:23;1.70;;;1.00;;
13343;SDS011;6741;48.964;9.406;2023-03-14T05:45:50;2.20;;;0.97;;
13343;SDS011;6741;48.964;9.406;2023-03-14T05:48:17;3.33;;;1.00;;
13343;SDS011;6741;48.964;9.406;2023-03-14T05:50:44;1.37;;;0.90;;
13343;SDS011;6741;48.964;9.406;2023-03-14T05:53:11;2.17;;;1.00;;
13343;SDS011;6741;48.964;9.406;2023-03-14T05:55:40;2.13;;;1.20;;
13343;SDS011;6741;48.964;9.406;2023-03-14T05:58:07;4.20;;;1.27;;
13343;SDS011;6741;48.964;9.406;2023-03-14T06:00:34;2.33;;;1.23;;
13343;SDS011;6741;48.964;9.406;2023-03-14T06:03:01;3.73;;;1.10;;
13343;SDS011;6741;48.964;9.406;2023-03-14T06:05:27;1.70;;;1.10;;
13343;SDS011;6741;48.964;9.406;2023-03-14T06:07:54;2.10;;;1.03;;
13343;SDS011;6741;48.964;9.406;2023-03-14T06:10:21;1.43;;;0.57;;
13343;SDS011;6741;48.964;9.406;2023-03-14T06:12:50;2.67;;;0.90;;
13343;SDS011;6741;48.964;9.406;2023-03-14T06:15:17;1.47;;;0.70;;
13343;SDS011;6741;48.964;9.406;2023-03-14T06:17:45;1.97;;;0.73;;
13343;SDS011;6741;48.964;9.406;2023-03-14T06:20:12;1.83;;;0.83;;
13343;SDS011;6741;48.964;9.406;2023-03-14T06:22:39;2.57;;;1.13;;
13343;SDS011;6741;48.964;9.406;2023-03-14T06:25:07;1.87;;;0.70;;
13343;SDS011;6741;48.964;9.406;2023-03-14T06:27:35;1.30;;;0.53;;
13343;SDS011;6741;48.964;9.406;2023-03-14T06:30:03;2.73;;;0.70;;
13343;SDS011;6741;48.964;9.406;2023-03-14T06:32:31;2.57;;;1.00;;
13343;SDS011;6741;48.964;9.406;2023-03-14T06:34:58;2.77;;;0.97;;
13343;SDS011;6741;48.964;9.406;2023-03-14T06:37:26;1.90;;;0.93;;
13343;SDS011;6741;48.964;9.406;2023-03-14T06:39:53;1.07;;;0.60;;
13343;SDS011;6741;48.964;9.406;2023-03-14T06:42:20;2.37;;;0.60;;
13343;SDS011;6741;48.964;9.406;2023-03-14T06:44:47;4.73;;;1.20;;
13343;SDS011;6741;48.964;9.406;2023-03-14T06:47:15;2.17;;;0.50;;
13343;SDS011;6741;48.964;9.406;2023-03-14T06:49:42;1.13;;;0.87;;
13343;SDS011;6741;48.964;9.406;2023-03-14T06:52:09;2.57;;;0.83;;
13343;SDS011;6741;48.964;9.406;2023-03-14T06:54:36;1.97;;;0.60;;
13343;SDS011;6741;48.964;9.406;2023-03-14T06:57:03;2.77;;;0.87;;
13343;SDS011;6741;48.964;9.406;2023-03-14T06:59:29;3.37;;;0.90;;
13343;SDS011;6741;48.964;9.406;2023-03-14T07:01:56;1.27;;;0.60;;
13343;SDS011;6741;48.964;9.406;2023-03-14T07:04:25;2.03;;;0.80;;
13343;SDS011;6741;48.964;9.406;2023-03-14T07:06:51;2.93;;;1.20;;
13343;SDS011;6741;48.964;9.406;2023-03-14T07:09:19;1.83;;;0.60;;
13343;SDS011;6741;48.964;9.406;2023-03-14T07:11:45;1.73;;;0.73;;
13343;SDS011;6741;48.964;9.406;2023-03-14T07:14:12;0.93;;;0.80;;
13343;SDS011;6741;48.964;9.406;2023-03-14T07:16:39;4.50;;;1.10;;
13343;SDS011;6741;48.964;9.406;2023-03-14T07:19:06;1.07;;;0.70;;
13343;SDS011;6741;48.964;9.406;2023-03-14T07:21:34;3.17;;;1.00;;
13343;SDS011;6741;48.964;9.406;2023-03-14T07:24:01;2.73;;;0.90;;
13343;SDS011;6741;48.964;9.406;2023-03-14T07:26:28;2.53;;;0.73;;
13343;SDS011;6741;48.964;9.406;2023-03-14T07:28:55;2.63;;;1.30;;
13343;SDS011;6741;48.964;9.406;2023-03-14T07:31:22;4.47;;;1.37;;
13343;SDS011;6741;48.964;9.406;2023-03-14T07:33:50;3.40;;;0.83;;
13343;SDS011;6741;48.964;9.406;2023-03-14T07:36:17;2.30;;;0.70;;
13343;SDS011;6741;48.964;9.406;2023-03-14T07:38:45;0.93;;;0.80;;
13343;SDS011;6741;48.964;9.406;2023-03-14T07:41:12;2.00;;;0.90;;
13343;SDS011;6741;48.964;9.406;2023-03-14T07:43:39;3.63;;;0.70;;
13343;SDS011;6741;48.964;9.406;2023-03-14T07:46:06;0.93;;;0.70;;
13343;SDS011;6741;48.964;9.406;2023-03-14T07:48:33;1.67;;;0.57;;
13343;SDS011;6741;48.964;9.406;2023-03-14T07:51:00;1.80;;;0.80;;
13343;SDS011;6741;48.964;9.406;2023-03-14T07:53:27;3.37;;;0.77;;
13343;SDS011;6741;48.964;9.406;2023-03-14T07:55:55;2.20;;;0.70;;
13343;SDS011;6741;48.964;9.406;2023-03-14T07:58:22;2.57;;;0.60;;
13343;SDS011;6741;48.964;9.406;2023-03-14T08:00:49;2.23;;;0.53;;
13343;SDS011;6741;48.964;9.406;2023-03-14T08:03:17;1.50;;;0.63;;
13343;SDS011;6741;48.964;9.406;2023-03-14T08:05:46;2.00;;;0.73;;
13343;SDS011;6741;48.964;9.406;2023-03-14T08:08:14;0.90;;;0.50;;
13343;SDS011;6741;48.964;9.406;2023-03-14T08:10:41;1.17;;;0.70;;
13343;SDS011;6741;48.964;9.406;2023-03-14T08:13:09;0.53;;;0.33;;
13343;SDS011;6741;48.964;9.406;2023-03-14T08:15:36;1.20;;;0.50;;
13343;SDS011;6741;48.964;9.406;2023-03-14T08:18:03;0.80;;;0.50;;
13343;SDS011;6741;48.964;9.406;2023-03-14T08:20:31;1.43;;;0.40;;
13343;SDS011;6741;48.964;9.406;2023-03-14T08:22:58;2.60;;;0.50;;
13343;SDS011;6741;48.964;9.406;2023-03-14T08:25:26;1.13;;;0.63;;
13343;SDS011;6741;48.964;9.406;2023-03-14T08:27:54;0.40;;;0.40;;
13343;SDS011;6741;48.964;9.406;2023-03-14T08:30:23;2.00;;;0.50;;
13343;SDS011;6741;48.964;9.406;2023-03-14T08:32:50;0.37;;;0.33;;
13343;SDS011;6741;48.964;9.406;2023-03-14T08:35:18;1.43;;;0.40;;
13343;SDS011;6741;48.964;9.406;2023-03-14T08:37:45;2.00;;;0.50;;
13343;SDS011;6741;48.964;9.406;2023-03-14T08:40:12;3.97;;;0.40;;
13343;SDS011;6741;48.964;9.406;2023-03-14T08:42:40;0.67;;;0.30;;
13343;SDS011;6741;48.964;9.406;2023-03-14T08:45:08;2.00;;;0.40;;
13343;SDS011;6741;48.964;9.406;2023-03-14T08:47:39;0.40;;;0.30;;
13343;SDS011;6741;48.964;9.406;2023-03-14T08:50:06;1.13;;;0.40;;
13343;SDS011;6741;48.964;9.406;2023-03-14T08:52:34;1.03;;;0.40;;
13343;SDS011;6741;48.964;9.406;2023-03-14T08:55:03;1.57;;;0.50;;
13343;SDS011;6741;48.964;9.406;2023-03-14T08:57:30;0.50;;;0.30;;
13343;SDS011;6741;48.964;9.406;2023-03-14T08:59:57;0.50;;;0.40;;
13343;SDS011;6741;48.964;9.406;2023-03-14T09:02:24;1.03;;;0.33;;
13343;SDS011;6741;48.964;9.406;2023-03-14T09:04:53;0.70;;;0.43;;
13343;SDS011;6741;48.964;9.406;2023-03-14T09:07:20;0.40;;;0.40;;
13343;SDS011;6741;48.964;9.406;2023-03-14T09:09:47;0.53;;;0.40;;
13343;SDS011;6741;48.964;9.406;2023-03-14T09:12:14;1.63;;;0.30;;
13343;SDS011;6741;48.964;9.406;2023-03-14T09:14:41;0.30;;;0.30;;
13343;SDS011;6741;48.964;9.406;2023-03-14T09:17:08;1.77;;;0.50;;
13343;SDS011;6741;48.964;9.406;2023-03-14T09:19:35;0.63;;;0.50;;
13343;SDS011;6741;48.964;9.406;2023-03-14T09:22:03;2.20;;;0.50;;
13343;SDS011;6741;48.964;9.406;2023-03-14T09:24:30;1.00;;;0.40;;
13343;SDS011;6741;48.964;9.406;2023-03-14T09:26:57;0.20;;;0.20;;
13343;SDS011;6741;48.964;9.406;2023-03-14T09:29:24;1.70;;;0.40;;
13343;SDS011;6741;48.964;9.406;2023-03-14T09:31:51;0.50;;;0.27;;
13343;SDS011;6741;48.964;9.406;2023-03-14T09:34:18;0.63;;;0.40;;
13343;SDS011;6741;48.964;9.406;2023-03-14T09:36:45;0.93;;;0.50;;
13343;SDS011;6741;48.964;9.406;2023-03-14T09:39:13;1.20;;;0.30;;
13343;SDS011;6741;48.964;9.406;2023-03-14T09:41:41;1.27;;;0.40;;
13343;SDS011;6741;48.964;9.406;2023-03-14T09:44:11;0.90;;;0.60;;
13343;SDS011;6741;48.964;9.406;2023-03-14T09:46:42;2.20;;;0.50;;
13343;SDS011;6741;48.964;9.406;2023-03-14T09:49:15;1.50;;;0.30;;
13343;SDS011;6741;48.964;9.406;2023-03-14T09:51:47;0.30;;;0.30;;
13343;SDS011;6741;48.964;9.406;2023-03-14T09:54:24;1.20;;;0.40;;
13343;SDS011;6741;48.964;9.406;2023-03-14T09:56:56;0.47;;;0.20;;
13343;SDS011;6741;48.964;9.406;2023-03-14T09:59:23;3.33;;;0.27;;
13343;SDS011;6741;48.964;9.406;2023-03-14T10:01:51;1.70;;;0.50;;
13343;SDS011;6741;48.964;9.406;2023-03-14T10:04:21;0.93;;;0.40;;
13343;SDS011;6741;48.964;9.406;2023-03-14T10:06:49;0.20;;;0.20;;
13343;SDS011;6741;48.964;9.406;2023-03-14T10:09:17;1.37;;;0.40;;
13343;SDS011;6741;48.964;9.406;2023-03-14T10:11:52;3.10;;;0.60;;
13343;SDS011;6741;48.964;9.406;2023-03-14T10:14:31;3.40;;;0.60;;
13343;SDS011;6741;48.964;9.406;2023-03-14T10:17:06;0.80;;;0.33;;
13343;SDS011;6741;48.964;9.406;2023-03-14T10:19:35;1.20;;;0.70;;
13343;SDS011;6741;48.964;9.406;2023-03-14T10:22:03;1.13;;;0.17;;
13343;SDS011;6741;48.964;9.406;2023-03-14T10:24:33;0.27;;;0.27;;
13343;SDS011;6741;48.964;9.406;2023-03-14T10:27:02;0.60;;;0.30;;
13343;SDS011;6741;48.964;9.406;2023-03-14T10:29:31;0.77;;;0.30;;
13343;SDS011;6741;48.964;9.406;2023-03-14T10:31:59;0.37;;;0.30;;
13343;SDS011;6741;48.964;9.406;2023-03-14T10:34:28;0.20;;;0.13;;
13343;SDS011;6741;48.964;9.406;2023-03-14T10:36:57;0.30;;;0.30;;
13343;SDS011;6741;48.964;9.406;2023-03-14T10:39:31;0.20;;;0.20;;
13343;SDS011;6741;48.964;9.406;2023-03-14T10:42:12;0.40;;;0.40;;
13343;SDS011;6741;48.964;9.406;2023-03-14T10:44:42;0.67;;;0.30;;
13343;SDS011;6741;48.964;9.406;2023-03-14T10:47:15;1.80;;;0.40;;
13343;SDS011;6741;48.964;9.406;2023-03-14T10:49:44;1.03;;;0.20;;
13343;SDS011;6741;48.964;9.406;2023-03-14T10:52:18;0.47;;;0.43;;
13343;SDS011;6741;48.964;9.406;2023-03-14T10:54:52;0.30;;;0.20;;
13343;SDS011;6741;48.964;9.406;2023-03-14T10:57:22;0.10;;;0.10;;
13343;SDS011;6741;48.964;9.406;2023-03-14T10:59:49;0.37;;;0.30;;
13343;SDS011;6741;48.964;9.406;2023-03-14T11:02:25;0.30;;;0.20;;
13343;SDS011;6741;48.964;9.406;2023-03-14T11:05:15;0.20;;;0.20;;
13343;SDS011;6741;48.964;9.406;2023-03-14T11:07:51;0.23;;;0.23;;
13343;SDS011;6741;48.964;9.406;2023-03-14T11:10:24;0.50;;;0.40;;
13343;SDS011;6741;48.964;9.406;2023-03-14T11:13:00;0.40;;;0.23;;
13343;SDS011;6741;48.964;9.406;2023-03-14T11:15:34;0.93;;;0.10;;
13343;SDS011;6741;48.964;9.406;2023-03-14T11:18:09;0.43;;;0.27;;
13343;SDS011;6741;48.964;9.406;2023-03-14T11:20:47;0.67;;;0.40;;
13343;SDS011;6741;48.964;9.406;2023-03-14T11:23:20;0.60;;;0.30;;
13343;SDS011;6741;48.964;9.406;2023-03-14T11:25:51;0.57;;;0.30;;
13343;SDS011;6741;48.964;9.406;2023-03-14T11:28:26;1.03;;;0.30;;
13343;SDS011;6741;48.964;9.406;2023-03-14T11:31:03;0.20;;;0.20;;
13343;SDS011;6741;48.964;9.406;2023-03-14T11:33:42;0.40;;;0.40;;
13343;SDS011;6741;48.964;9.406;2023-03-14T11:36:14;0.60;;;0.23;;
13343;SDS011;6741;48.964;9.406;2023-03-14T11:38:46;0.30;;;0.20;;
13343;SDS011;6741;48.964;9.406;2023-03-14T11:41:17;1.47;;;0.30;;
13343;SDS011;6741;48.964;9.406;2023-03-14T11:43:51;0.30;;;0.30;;
13343;SDS011;6741;48.964;9.406;2023-03-14T11:46:21;0.50;;;0.33;;
13343;SDS011;6741;48.964;9.406;2023-03-14T11:48:54;0.50;;;0.50;;
13343;SDS011;6741;48.964;9.406;2023-03-14T11:51:28;0.30;;;0.30;;
13343;SDS011;6741;48.964;9.406;2023-03-14T11:54:00;0.93;;;0.37;;
13343;SDS011;6741;48.964;9.406;2023-03-14T11:56:36;0.50;;;0.50;;
13343;SDS011;6741;48.964;9.406;2023-03-14T11:59:10;0.20;;;0.20;;
13343;SDS011;6741;48.964;9.406;2023-03-14T12:01:49;0.30;;;0.30;;
13343;SDS011;6741;48.964;9.406;2023-03-14T12:04:22;0.60;;;0.60;;
13343;SDS011;6741;48.964;9.406;2023-03-14T12:07:02;0.30;;;0.10;;
13343;SDS011;6741;48.964;9.406;2023-03-14T12:09:32;0.47;;;0.47;;
13343;SDS011;6741;48.964;9.406;2023-03-14T12:12:02;0.10;;;0.10;;
13343;SDS011;6741;48.964;9.406;2023-03-14T12:14:32;0.30;;;0.30;;
13343;SDS011;6741;48.964;9.406;2023-03-14T12:17:04;0.77;;;0.33;;
13343;SDS011;6741;48.964;9.406;2023-03-14T12:19:33;0.27;;;0.27;;
13343;SDS011;6741;48.964;9.406;2023-03-14T12:24:53;1.33;;;0.60;;
13343;SDS011;6741;48.964;9.406;2023-03-14T12:27:44;0.23;;;0.10;;
13343;SDS011;6741;48.964;9.406;2023-03-14T12:30:27;1.23;;;0.20;;
13343;SDS011;6741;48.964;9.406;2023-03-14T12:35:52;0.30;;;0.30;;
13343;SDS011;6741;48.964;9.406;2023-03-14T12:38:27;0.10;;;0.10;;
13343;SDS011;6741;48.964;9.406;2023-03-14T12:41:05;0.27;;;0.27;;
13343;SDS011;6741;48.964;9.406;2023-03-14T12:43:41;0.63;;;0.30;;
13343;SDS011;6741;48.964;9.406;2023-03-14T12:46:14;1.90;;;0.23;;
13343;SDS011;6741;48.964;9.406;2023-03-14T12:48:46;0.80;;;0.80;;
13343;SDS011;6741;48.964;9.406;2023-03-14T12:51:15;1.70;;;1.13;;
13343;SDS011;6741;48.964;9.406;2023-03-14T12:54:06;1.67;;;1.10;;
13343;SDS011;6741;48.964;9.406;2023-03-14T12:56:59;1.63;;;1.40;;
13343;SDS011;6741;48.964;9.406;2023-03-14T12:59:37;1.97;;;1.70;;
13343;SDS011;6741;48.964;9.406;2023-03-14T13:02:20;1.90;;;1.37;;
13343;SDS011;6741;48.964;9.406;2023-03-14T13:04:53;6.43;;;1.70;;
13343;SDS011;6741;48.964;9.406;2023-03-14T13:07:30;1.67;;;1.30;;
13343;SDS011;6741;48.964;9.406;2023-03-14T13:10:04;1.93;;;1.60;;
13343;SDS011;6741;48.964;9.406;2023-03-14T13:12:48;1.23;;;1.13;;
13343;SDS011;6741;48.964;9.406;2023-03-14T13:15:21;1.97;;;1.10;;
13343;SDS011;6741;48.964;9.406;2023-03-14T13:17:51;1.67;;;1.40;;
13343;SDS011;6741;48.964;9.406;2023-03-14T13:20:21;1.63;;;1.10;;
13343;SDS011;6741;48.964;9.406;2023-03-14T13:22:53;1.30;;;1.20;;
13343;SDS011;6741;48.964;9.406;2023-03-14T13:25:20;1.20;;;1.10;;
13343;SDS011;6741;48.964;9.406;2023-03-14T13:27:48;0.73;;;0.73;;
13343;SDS011;6741;48.964;9.406;2023-03-14T13:30:16;5.17;;;1.20;;
13343;SDS011;6741;48.964;9.406;2023-03-14T13:32:50;2.23;;;1.10;;
13343;SDS011;6741;48.964;9.406;2023-03-14T13:35:19;1.83;;;0.80;;
13343;SDS011;6741;48.964;9.406;2023-03-14T13:37:54;2.30;;;0.80;;
13343;SDS011;6741;48.964;9.406;2023-03-14T13:40:26;0.93;;;0.93;;
13343;SDS011;6741;48.964;9.406;2023-03-14T13:42:59;2.10;;;0.67;;
13343;SDS011;6741;48.964;9.406;2023-03-14T13:45:42;0.50;;;0.50;;
13343;SDS011;6741;48.964;9.406;2023-03-14T13:48:15;5.13;;;0.70;;
13343;SDS011;6741;48.964;9.406;2023-03-14T13:50:44;3.70;;;0.87;;
13343;SDS011;6741;48.964;9.406;2023-03-14T13:53:19;2.10;;;0.83;;
13343;SDS011;6741;48.964;9.406;2023-03-14T13:55:47;1.47;;;0.97;;
13343;SDS011;6741;48.964;9.406;2023-03-14T13:58:26;1.87;;;0.40;;
13343;SDS011;6741;48.964;9.406;2023-03-14T14:00:56;1.00;;;0.63;;
13343;SDS011;6741;48.964;9.406;2023-03-14T14:03:38;3.87;;;0.93;;
13343;SDS011;6741;48.964;9.406;2023-03-14T14:06:08;1.23;;;0.60;;
13343;SDS011;6741;48.964;9.406;2023-03-14T14:08:46;2.00;;;0.63;;
13343;SDS011;6741;48.964;9.406;2023-03-14T14:11:16;2.87;;;0.60;;
13343;SDS011;6741;48.964;9.406;2023-03-14T14:13:48;2.10;;;0.57;;
13343;SDS011;6741;48.964;9.406;2023-03-14T14:16:17;2.00;;;0.70;;
13343;SDS011;6741;48.964;9.406;2023-03-14T14:18:48;1.40;;;0.60;;
13343;SDS011;6741;48.964;9.406;2023-03-14T14:21:16;0.60;;;0.50;;
13343;SDS011;6741;48.964;9.406;2023-03-14T14:23:43;0.50;;;0.50;;
13343;SDS011;6741;48.964;9.406;2023-03-14T14:26:13;1.03;;;0.90;;
13343;SDS011;6741;48.964;9.406;2023-03-14T14:28:42;2.30;;;0.77;;
13343;SDS011;6741;48.964;9.406;2023-03-14T14:31:19;1.80;;;0.70;;
13343;SDS011;6741;48.964;9.406;2023-03-14T14:33:53;2.83;;;0.77;;
13343;SDS011;6741;48.964;9.406;2023-03-14T14:36:22;2.13;;;0.87;;
13343;SDS011;6741;48.964;9.406;2023-03-14T14:38:52;2.37;;;0.87;;
13343;SDS011;6741;48.964;9.406;2023-03-14T14:41:26;1.00;;;0.50;;
13343;SDS011;6741;48.964;9.406;2023-03-14T14:43:54;3.47;;;0.97;;
13343;SDS011;6741;48.964;9.406;2023-03-14T14:46:25;1.70;;;0.90;;
13343;SDS011;6741;48.964;9.406;2023-03-14T14:48:55;3.00;;;1.60;;
13343;SDS011;6741;48.964;9.406;2023-03-14T14:51:24;1.23;;;1.00;;
13343;SDS011;6741;48.964;9.406;2023-03-14T14:54:00;0.93;;;0.73;;
13343;SDS011;6741;48.964;9.406;2023-03-14T14:56:36;1.90;;;0.77;;
13343;SDS011;6741;48.964;9.406;2023-03-14T14:59:05;2.00;;;0.67;;
13343;SDS011;6741;48.964;9.406;2023-03-14T15:01:36;2.47;;;0.90;;
13343;SDS011;6741;48.964;9.406;2023-03-14T15:04:04;4.47;;;0.97;;
13343;SDS011;6741;48.964;9.406;2023-03-14T15:06:39;0.90;;;0.70;;
13343;SDS011;6741;48.964;9.406;2023-03-14T15:09:08;2.57;;;0.80;;
13343;SDS011;6741;48.964;9.406;2023-03-14T15:11:36;1.83;;;0.83;;
13343;SDS011;6741;48.964;9.406;2023-03-14T15:14:03;1.30;;;0.70;;
13343;SDS011;6741;48.964;9.406;2023-03-14T15:16:31;1.80;;;0.93;;
13343;SDS011;6741;48.964;9.406;2023-03-14T15:19:01;3.03;;;1.00;;